Time;durP1;ratioP1;P1;durP2;ratioP2;P2;SDS_P1;SDS_P2;PMS_P1;PMS_P2;Temp;Humidity;BMP_temperature;BMP_pressure;BME280_temperature;BME280_humidity;BME280_pressure;Samples;Min_cycle;Max_cycle;Signal;HPM_P1;HPM_P2
2021/11/21 00:00:26;;;;;;;30.25;16.58;;;5.70;99.90;;;;;;4972604;28;20586;-82
2021/11/21 00:02:52;;;;;;;27.33;16.77;;;5.70;99.90;;;;;;4973595;28;20685;-82
2021/11/21 00:05:18;;;;;;;33.38;18.52;;;5.70;99.90;;;;;;4974052;28;20267;-82
2021/11/21 00:07:44;;;;;;;28.73;17.48;;;5.70;99.90;;;;;;4973413;28;20052;-81
2021/11/21 00:10:10;;;;;;;25.83;16.92;;;5.80;99.90;;;;;;4973547;28;20038;-82
2021/11/21 00:12:37;;;;;;;60.15;17.38;;;5.90;99.90;;;;;;4973220;28;20047;-82
2021/11/21 00:15:04;;;;;;;39.55;18.23;;;5.90;99.90;;;;;;4973745;28;20023;-81
2021/11/21 00:17:30;;;;;;;30.30;17.63;;;5.80;99.90;;;;;;4973158;28;20475;-81
2021/11/21 00:19:56;;;;;;;85.13;21.88;;;5.80;99.90;;;;;;4972689;28;20077;-82
2021/11/21 00:22:24;;;;;;;36.47;18.83;;;5.80;99.90;;;;;;4973179;28;20034;-81
2021/11/21 00:24:50;;;;;;;31.42;18.63;;;5.80;99.90;;;;;;4973025;28;20054;-82
2021/11/21 00:27:16;;;;;;;64.20;18.02;;;5.80;99.90;;;;;;4972935;28;20023;-81
2021/11/21 00:29:42;;;;;;;31.98;16.98;;;5.70;99.90;;;;;;4973570;28;20491;-81
2021/11/21 00:32:07;;;;;;;32.47;17.48;;;5.60;99.90;;;;;;4972812;28;20483;-82
2021/11/21 00:34:36;;;;;;;29.80;16.90;;;5.70;99.90;;;;;;4972952;28;20063;-82
2021/11/21 00:37:01;;;;;;;33.10;17.65;;;5.70;99.90;;;;;;4972984;28;20085;-82
2021/11/21 00:39:27;;;;;;;30.35;16.10;;;5.70;99.90;;;;;;4972776;28;20026;-82
2021/11/21 00:41:55;;;;;;;44.28;18.17;;;5.70;99.90;;;;;;4972665;28;20361;-81
2021/11/21 00:44:21;;;;;;;25.13;16.92;;;5.80;99.90;;;;;;4972760;28;20026;-82
2021/11/21 00:46:47;;;;;;;32.33;17.30;;;5.70;99.90;;;;;;4972201;28;20065;-82
2021/11/21 00:49:15;;;;;;;40.80;16.60;;;5.80;99.90;;;;;;4972949;28;20074;-81
2021/11/21 00:51:41;;;;;;;27.55;15.25;;;5.70;99.90;;;;;;4971913;28;20031;-82
2021/11/21 00:56:48;;;;;;;25.25;15.45;;;5.70;99.90;;;;;;4972242;28;20415;-82
2021/11/21 00:59:19;;;;;;;40.83;15.65;;;5.70;99.90;;;;;;4972509;28;20368;-82
2021/11/21 01:01:46;;;;;;;30.00;16.30;;;5.80;99.90;;;;;;4972759;28;20050;-82
2021/11/21 01:04:11;;;;;;;37.80;16.20;;;5.80;99.90;;;;;;4972414;28;20025;-82
2021/11/21 01:06:37;;;;;;;34.90;15.65;;;5.80;99.90;;;;;;4972498;28;20031;-82
2021/11/21 01:09:03;;;;;;;27.02;16.13;;;5.70;99.90;;;;;;4972158;28;20019;-82
2021/11/21 01:11:29;;;;;;;27.05;15.27;;;5.70;99.90;;;;;;4972182;28;20133;-82
2021/11/21 01:13:54;;;;;;;44.17;17.13;;;5.70;99.90;;;;;;4972220;28;20546;-82
2021/11/21 01:16:20;;;;;;;50.85;17.15;;;5.70;99.90;;;;;;4972203;28;20494;-82
2021/11/21 01:18:46;;;;;;;33.45;15.40;;;5.70;99.90;;;;;;4972523;28;20026;-82
2021/11/21 01:21:11;;;;;;;28.42;15.82;;;5.70;99.90;;;;;;4971117;28;20030;-82
2021/11/21 01:23:37;;;;;;;32.70;15.43;;;5.70;99.90;;;;;;4971997;28;20025;-82
2021/11/21 01:26:03;;;;;;;40.38;15.48;;;5.80;99.90;;;;;;4972080;28;20031;-82
2021/11/21 01:28:29;;;;;;;28.10;16.27;;;5.70;99.90;;;;;;4972280;28;20023;-82
2021/11/21 01:30:54;;;;;;;55.80;16.35;;;5.70;99.90;;;;;;4972245;28;20058;-81
2021/11/21 01:33:21;;;;;;;36.58;15.65;;;5.70;99.90;;;;;;4971810;28;20062;-82
2021/11/21 01:35:47;;;;;;;36.13;16.27;;;5.60;99.90;;;;;;4972155;28;20022;-82
2021/11/21 01:38:13;;;;;;;26.75;15.85;;;5.70;99.90;;;;;;4971734;28;20037;-82
2021/11/21 01:40:39;;;;;;;24.42;14.85;;;5.80;99.90;;;;;;4970395;28;20030;-81
2021/11/21 01:43:06;;;;;;;23.50;14.88;;;5.80;99.90;;;;;;4972028;28;20039;-82
2021/11/21 01:45:32;;;;;;;32.42;15.48;;;5.80;99.90;;;;;;4971748;28;20230;-82
2021/11/21 01:47:58;;;;;;;53.13;17.25;;;5.70;99.90;;;;;;4971642;28;20046;-82
2021/11/21 01:50:30;;;;;;;39.42;16.48;;;5.70;99.90;;;;;;4971535;28;20045;-82
2021/11/21 01:52:57;;;;;;;25.10;16.05;;;5.70;99.90;;;;;;4970154;28;20390;-81
2021/11/21 01:55:23;;;;;;;28.65;16.15;;;5.70;99.90;;;;;;4971324;28;20035;-82
2021/11/21 01:57:49;;;;;;;29.30;18.00;;;5.80;99.90;;;;;;4970872;28;20396;-82
2021/11/21 02:00:16;;;;;;;37.63;17.58;;;5.90;99.90;;;;;;4971479;28;20102;-82
2021/11/21 02:02:43;;;;;;;35.28;16.85;;;6.00;99.90;;;;;;4971490;28;20053;-81
2021/11/21 02:05:10;;;;;;;45.50;16.45;;;6.00;99.90;;;;;;4971786;28;20378;-82
2021/11/21 02:07:36;;;;;;;30.10;17.02;;;6.00;99.90;;;;;;4971426;28;20029;-82
2021/11/21 02:10:04;;;;;;;30.70;16.10;;;5.90;99.90;;;;;;4971243;28;20030;-82
2021/11/21 02:12:30;;;;;;;29.80;15.68;;;5.90;99.90;;;;;;4971263;28;20034;-82
2021/11/21 02:14:56;;;;;;;36.67;16.70;;;5.90;99.90;;;;;;4971214;28;20491;-81
2021/11/21 02:17:26;;;;;;;38.53;17.08;;;5.90;99.90;;;;;;4971451;28;20065;-82
2021/11/21 02:19:52;;;;;;;34.92;15.73;;;5.90;99.90;;;;;;4969972;28;20551;-82
2021/11/21 02:22:19;;;;;;;27.08;15.82;;;5.90;99.90;;;;;;4971352;28;20483;-81
2021/11/21 02:24:44;;;;;;;33.88;15.95;;;6.00;99.90;;;;;;4970042;28;20030;-82
2021/11/21 02:27:13;;;;;;;36.33;15.82;;;5.90;99.90;;;;;;4971435;28;20383;-82
2021/11/21 02:29:38;;;;;;;31.00;17.33;;;5.90;99.90;;;;;;4971119;28;20098;-82
2021/11/21 02:32:04;;;;;;;39.35;15.65;;;5.90;99.90;;;;;;4971050;28;20043;-82
2021/11/21 02:34:30;;;;;;;38.35;16.98;;;5.90;99.90;;;;;;4971612;28;20050;-82
2021/11/21 02:36:56;;;;;;;33.20;17.08;;;5.80;99.90;;;;;;4971126;28;20065;-82
2021/11/21 02:39:21;;;;;;;55.33;18.17;;;5.90;99.90;;;;;;4971182;28;20054;-82
2021/11/21 02:41:47;;;;;;;27.52;17.08;;;5.80;99.90;;;;;;4971244;28;20268;-82
2021/11/21 02:44:13;;;;;;;35.40;17.48;;;5.90;99.90;;;;;;4971153;28;20031;-82
2021/11/21 02:46:38;;;;;;;28.92;16.27;;;5.90;99.90;;;;;;4971032;28;20038;-82
2021/11/21 02:49:04;;;;;;;28.60;16.27;;;5.90;99.90;;;;;;4971025;28;20023;-82
2021/11/21 02:51:30;;;;;;;28.00;16.75;;;6.00;99.90;;;;;;4970835;28;20026;-82
2021/11/21 02:53:56;;;;;;;34.83;16.92;;;6.00;99.90;;;;;;4970944;28;20038;-82
2021/11/21 02:56:22;;;;;;;30.48;16.88;;;6.00;99.90;;;;;;4971020;28;20530;-82
2021/11/21 02:58:48;;;;;;;29.55;15.63;;;5.90;99.90;;;;;;4971136;28;20026;-82
2021/11/21 03:01:18;;;;;;;28.58;16.73;;;5.80;99.90;;;;;;4970872;28;20026;-82
2021/11/21 03:03:43;;;;;;;30.77;18.00;;;5.90;99.90;;;;;;4971079;28;20015;-82
2021/11/21 03:06:11;;;;;;;31.10;16.48;;;6.00;99.90;;;;;;4970215;28;20491;-81
2021/11/21 03:08:38;;;;;;;34.83;17.00;;;5.90;99.90;;;;;;4972417;28;20015;-82
2021/11/21 03:11:22;;;;;;;42.28;18.27;;;5.90;99.90;;;;;;4974498;28;20113;-81
2021/11/21 03:13:48;;;;;;;32.92;18.30;;;5.80;99.90;;;;;;4974349;28;20521;-82
2021/11/21 03:16:14;;;;;;;250.13;35.63;;;5.80;99.90;;;;;;4974390;28;20027;-83
2021/11/21 03:18:40;;;;;;;39.38;18.70;;;5.80;99.90;;;;;;4974386;28;20033;-83
2021/11/21 03:21:06;;;;;;;26.60;16.60;;;5.90;99.90;;;;;;4974368;28;20041;-84
2021/11/21 03:23:32;;;;;;;29.77;17.65;;;5.90;99.90;;;;;;4974544;28;20042;-83
2021/11/21 03:25:57;;;;;;;33.50;18.45;;;5.90;99.90;;;;;;4974231;28;20562;-83
2021/11/21 03:28:23;;;;;;;28.75;17.15;;;5.80;99.90;;;;;;4974281;28;20162;-84
2021/11/21 03:30:49;;;;;;;26.60;16.00;;;5.80;99.90;;;;;;4974075;28;20046;-84
2021/11/21 03:33:14;;;;;;;26.60;16.77;;;5.80;99.90;;;;;;4974037;28;20042;-83
2021/11/21 03:35:40;;;;;;;28.83;16.40;;;5.90;99.90;;;;;;4974233;28;20106;-83
2021/11/21 03:38:06;;;;;;;24.92;16.33;;;5.90;99.90;;;;;;4973867;28;20444;-84
2021/11/21 03:40:32;;;;;;;25.90;17.08;;;5.90;99.90;;;;;;4973900;28;20519;-83
2021/11/21 03:43:00;;;;;;;29.77;15.52;;;6.00;99.90;;;;;;4974123;28;20108;-84
2021/11/21 03:45:25;;;;;;;25.90;16.98;;;6.00;99.90;;;;;;4972753;28;20475;-84
2021/11/21 03:47:51;;;;;;;24.42;15.10;;;5.90;99.90;;;;;;4974192;28;20035;-83
2021/11/21 03:50:18;;;;;;;32.00;16.00;;;5.90;99.90;;;;;;4973794;28;20023;-83
2021/11/21 03:52:45;;;;;;;27.83;17.00;;;5.80;99.90;;;;;;4973723;28;20333;-83
2021/11/21 03:55:15;;;;;;;27.90;15.02;;;5.80;99.90;;;;;;4973467;28;20026;-84
2021/11/21 03:57:40;;;;;;;23.92;15.05;;;5.80;99.90;;;;;;4973632;28;20035;-83
2021/11/21 04:00:09;;;;;;;29.02;16.02;;;5.90;99.90;;;;;;4972335;28;20046;-83
2021/11/21 04:02:35;;;;;;;26.38;16.17;;;5.80;99.90;;;;;;4973383;28;20057;-84
2021/11/21 04:05:01;;;;;;;23.20;14.98;;;5.80;99.90;;;;;;4972147;28;20046;-84
2021/11/21 04:07:26;;;;;;;24.13;14.98;;;5.80;99.90;;;;;;4973530;28;20341;-84
2021/11/21 04:09:52;;;;;;;26.77;15.95;;;5.90;99.90;;;;;;4973583;28;20034;-83
2021/11/21 04:12:18;;;;;;;26.38;15.98;;;6.00;99.90;;;;;;4973326;28;20031;-84
2021/11/21 04:14:43;;;;;;;23.90;14.68;;;6.00;99.90;;;;;;4973392;28;20027;-84
2021/11/21 04:17:09;;;;;;;22.77;14.90;;;6.00;99.90;;;;;;4973248;28;20027;-84
2021/11/21 04:19:35;;;;;;;23.35;15.07;;;5.90;99.90;;;;;;4971922;28;20031;-84
2021/11/21 04:22:01;;;;;;;27.77;14.65;;;6.00;99.90;;;;;;4973131;28;20081;-84
2021/11/21 04:24:27;;;;;;;23.02;13.93;;;6.00;99.90;;;;;;4973248;28;20073;-84
2021/11/21 04:26:52;;;;;;;82.35;19.20;;;5.90;99.90;;;;;;4973100;28;20055;-83
2021/11/21 04:29:18;;;;;;;24.42;13.65;;;5.80;99.90;;;;;;4972938;28;20022;-84
2021/11/21 04:31:44;;;;;;;24.70;14.00;;;5.80;99.90;;;;;;4972964;28;20022;-83
2021/11/21 04:34:10;;;;;;;37.53;14.40;;;5.80;99.90;;;;;;4973012;28;20031;-84
2021/11/21 04:36:36;;;;;;;25.63;13.18;;;5.80;99.90;;;;;;4972768;28;20110;-83
2021/11/21 04:39:04;;;;;;;26.42;13.25;;;5.70;99.90;;;;;;4972574;28;20109;-83
2021/11/21 04:41:31;;;;;;;26.65;14.23;;;5.80;99.90;;;;;;4972759;28;20080;-84
2021/11/21 04:44:02;;;;;;;24.25;14.90;;;5.60;99.90;;;;;;4972736;28;20246;-84
2021/11/21 04:46:28;;;;;;;23.95;14.55;;;5.70;99.90;;;;;;4973161;28;20486;-84
2021/11/21 04:48:54;;;;;;;23.25;13.93;;;5.70;99.90;;;;;;4972815;28;20102;-84
2021/11/21 04:51:19;;;;;;;31.13;14.98;;;5.70;99.90;;;;;;4972494;28;20037;-84
2021/11/21 04:53:45;;;;;;;25.90;14.07;;;5.60;99.90;;;;;;4972590;28;20038;-84
2021/11/21 04:56:11;;;;;;;26.75;15.13;;;5.60;99.90;;;;;;4972234;28;20101;-83
2021/11/21 04:58:36;;;;;;;23.98;13.63;;;5.70;99.90;;;;;;4972485;28;20031;-84
2021/11/21 05:01:02;;;;;;;25.83;13.73;;;5.70;99.90;;;;;;4971241;28;20297;-83
2021/11/21 05:03:28;;;;;;;23.92;12.70;;;5.70;99.90;;;;;;4971754;28;20026;-83
2021/11/21 05:05:55;;;;;;;26.00;14.27;;;5.70;99.90;;;;;;4972421;28;20049;-83
2021/11/21 05:08:21;;;;;;;26.77;13.20;;;5.70;99.90;;;;;;4972392;28;20026;-83
2021/11/21 05:10:46;;;;;;;29.95;13.60;;;5.80;99.90;;;;;;4972123;28;20027;-83
2021/11/21 05:13:12;;;;;;;24.67;12.98;;;5.80;99.90;;;;;;4972124;28;20038;-83
2021/11/21 05:15:38;;;;;;;25.33;12.88;;;5.90;99.90;;;;;;4970931;28;20058;-83
2021/11/21 05:18:03;;;;;;;28.48;13.70;;;5.90;99.90;;;;;;4972089;28;20022;-83
2021/11/21 05:20:29;;;;;;;25.98;13.25;;;5.90;99.90;;;;;;4971061;28;20064;-84
2021/11/21 05:22:55;;;;;;;29.17;13.82;;;5.90;99.90;;;;;;4971950;28;20078;-83
2021/11/21 05:25:21;;;;;;;32.63;13.85;;;5.80;99.90;;;;;;4972008;28;20054;-83
2021/11/21 05:27:47;;;;;;;365.20;44.97;;;5.90;99.90;;;;;;4972141;28;20033;-83
2021/11/21 05:30:14;;;;;;;26.38;13.30;;;5.90;99.90;;;;;;4972066;28;20085;-83
2021/11/21 05:32:41;;;;;;;25.73;12.23;;;5.80;99.90;;;;;;4970764;28;20495;-83
2021/11/21 05:35:07;;;;;;;27.05;13.07;;;5.80;99.90;;;;;;4970466;28;20117;-84
2021/11/21 05:37:35;;;;;;;24.38;12.57;;;5.90;99.90;;;;;;4972096;28;20526;-83
2021/11/21 05:40:05;;;;;;;24.02;12.73;;;5.90;99.90;;;;;;4970414;28;20479;-84
2021/11/21 05:42:31;;;;;;;29.30;12.93;;;5.90;99.90;;;;;;4971807;28;20150;-84
2021/11/21 05:44:56;;;;;;;28.67;13.38;;;5.90;99.90;;;;;;4971820;28;20059;-83
2021/11/21 05:47:22;;;;;;;23.67;13.23;;;5.90;99.90;;;;;;4971733;28;20019;-84
2021/11/21 05:49:48;;;;;;;29.08;13.23;;;5.90;99.90;;;;;;4971578;28;20023;-83
2021/11/21 05:52:14;;;;;;;25.67;13.10;;;6.00;99.90;;;;;;4971466;28;20034;-84
2021/11/21 05:54:40;;;;;;;25.15;13.43;;;5.90;99.90;;;;;;4971318;28;20045;-84
2021/11/21 05:57:06;;;;;;;25.58;13.18;;;5.90;99.90;;;;;;4971523;28;20065;-84
2021/11/21 05:59:35;;;;;;;27.92;13.88;;;5.70;99.90;;;;;;4971906;28;20022;-84
2021/11/21 06:02:02;;;;;;;35.85;14.20;;;5.60;99.90;;;;;;4971541;28;20179;-84
2021/11/21 06:04:27;;;;;;;30.38;15.10;;;5.70;99.90;;;;;;4970977;28;20086;-83
2021/11/21 06:06:53;;;;;;;33.20;15.80;;;5.80;99.90;;;;;;4971335;28;20038;-83
2021/11/21 06:09:19;;;;;;;31.83;14.57;;;5.80;99.90;;;;;;4971493;28;20018;-83
2021/11/21 06:11:45;;;;;;;28.40;14.48;;;5.70;99.90;;;;;;4971287;28;20061;-84
2021/11/21 06:14:10;;;;;;;27.83;14.68;;;5.80;99.90;;;;;;4971250;28;20102;-83
2021/11/21 06:16:36;;;;;;;28.73;14.70;;;5.80;99.90;;;;;;4971529;28;20026;-84
2021/11/21 06:19:03;;;;;;;29.42;13.80;;;5.80;99.90;;;;;;4971388;28;20030;-82
2021/11/21 06:21:29;;;;;;;31.40;14.98;;;5.80;99.90;;;;;;4971288;28;20086;-82
2021/11/21 06:23:55;;;;;;;30.05;14.25;;;5.90;99.90;;;;;;4971143;28;20495;-82
2021/11/21 06:26:21;;;;;;;27.98;14.23;;;5.90;99.90;;;;;;4971348;28;20034;-82
2021/11/21 06:28:47;;;;;;;29.10;14.38;;;6.00;99.90;;;;;;4971111;28;20023;-82
2021/11/21 06:31:12;;;;;;;25.65;13.65;;;5.90;99.90;;;;;;4971488;28;20088;-82
2021/11/21 06:33:38;;;;;;;27.05;13.25;;;6.00;99.90;;;;;;4970633;28;20082;-82
2021/11/21 06:36:05;;;;;;;27.73;13.52;;;5.90;99.90;;;;;;4971232;28;20035;-83
2021/11/21 06:38:31;;;;;;;28.10;13.90;;;6.00;99.90;;;;;;4970967;28;20066;-83
2021/11/21 06:40:58;;;;;;;32.90;13.80;;;6.00;99.90;;;;;;4971200;28;20117;-82
2021/11/21 06:43:24;;;;;;;27.55;14.30;;;6.00;99.90;;;;;;4972323;28;20023;-82
2021/11/21 06:45:49;;;;;;;24.55;12.77;;;6.00;99.90;;;;;;4974913;28;20035;-82
2021/11/21 06:48:19;;;;;;;28.08;14.07;;;6.00;99.90;;;;;;4975315;28;20031;-82
2021/11/21 06:50:48;;;;;;;27.00;13.45;;;6.00;99.90;;;;;;4975393;28;20301;-83
2021/11/21 06:53:13;;;;;;;32.33;14.88;;;6.10;99.90;;;;;;4974552;28;20034;-82
2021/11/21 06:55:39;;;;;;;26.35;13.88;;;6.10;99.90;;;;;;4974608;28;20047;-82
2021/11/21 06:58:05;;;;;;;27.27;14.00;;;6.10;99.90;;;;;;4974720;28;20027;-83
2021/11/21 07:00:31;;;;;;;26.48;13.63;;;6.20;99.90;;;;;;4973466;28;20038;-82
2021/11/21 07:02:56;;;;;;;24.90;13.30;;;6.20;99.90;;;;;;4973929;28;20432;-82
2021/11/21 07:05:22;;;;;;;28.38;14.63;;;6.20;99.90;;;;;;4974524;28;20035;-82
2021/11/21 07:07:48;;;;;;;27.13;14.18;;;6.20;99.90;;;;;;4974293;28;20019;-82
2021/11/21 07:10:17;;;;;;;28.13;13.70;;;6.20;99.90;;;;;;4974387;28;20074;-82
2021/11/21 07:12:43;;;;;;;27.17;14.45;;;6.20;99.90;;;;;;4974393;28;20031;-82
2021/11/21 07:15:10;;;;;;;27.30;13.52;;;6.30;99.90;;;;;;4974326;28;20053;-82
2021/11/21 07:17:36;;;;;;;29.83;14.15;;;6.30;99.90;;;;;;4974354;28;20027;-82
2021/11/21 07:20:03;;;;;;;28.75;13.98;;;6.30;99.90;;;;;;4974777;28;20452;-82
2021/11/21 07:22:29;;;;;;;28.25;14.63;;;6.30;99.90;;;;;;4974413;28;20018;-82
2021/11/21 07:24:54;;;;;;;29.05;14.60;;;6.30;99.90;;;;;;4974270;28;20038;-82
2021/11/21 07:27:20;;;;;;;27.10;13.55;;;6.20;99.90;;;;;;4974191;28;20027;-83
2021/11/21 07:29:46;;;;;;;30.08;14.73;;;6.30;99.90;;;;;;4974253;28;20055;-84
2021/11/21 07:32:11;;;;;;;31.70;14.88;;;6.30;99.90;;;;;;4973035;28;20023;-84
2021/11/21 07:34:37;;;;;;;31.13;15.13;;;6.20;99.90;;;;;;4974065;28;20074;-84
2021/11/21 07:37:03;;;;;;;31.80;15.13;;;6.20;99.90;;;;;;4973738;28;20400;-84
2021/11/21 07:39:29;;;;;;;32.85;16.05;;;6.20;99.90;;;;;;4974039;28;20066;-84
2021/11/21 07:41:55;;;;;;;31.40;15.57;;;6.30;99.90;;;;;;4973941;28;20031;-83
2021/11/21 07:44:21;;;;;;;31.50;15.10;;;6.30;99.90;;;;;;4972763;28;20598;-83
2021/11/21 07:46:47;;;;;;;31.05;15.02;;;6.30;99.90;;;;;;4973814;28;20035;-84
2021/11/21 07:49:12;;;;;;;30.80;15.75;;;6.30;99.90;;;;;;4973857;28;20030;-84
2021/11/21 07:51:38;;;;;;;31.63;15.05;;;6.40;99.90;;;;;;4973926;28;20026;-83
2021/11/21 07:54:04;;;;;;;29.50;15.63;;;6.40;99.90;;;;;;4973239;28;20050;-84
2021/11/21 07:56:30;;;;;;;33.85;15.55;;;6.40;99.90;;;;;;4972872;28;20039;-83
2021/11/21 07:58:55;;;;;;;31.85;16.20;;;6.50;99.90;;;;;;4973566;28;20034;-84
2021/11/21 08:01:21;;;;;;;37.83;16.55;;;6.50;99.90;;;;;;4973449;28;20030;-84
2021/11/21 08:03:47;;;;;;;32.95;16.27;;;6.50;99.90;;;;;;4973588;28;20022;-84
2021/11/21 08:06:12;;;;;;;31.35;15.85;;;6.50;99.90;;;;;;4973561;28;20023;-84
2021/11/21 08:08:39;;;;;;;31.45;16.88;;;6.60;99.90;;;;;;4972948;28;20034;-84
2021/11/21 08:11:05;;;;;;;34.90;16.13;;;6.70;99.90;;;;;;4973477;28;20027;-84
2021/11/21 08:13:31;;;;;;;32.63;16.02;;;6.70;99.90;;;;;;4972062;28;20392;-84
2021/11/21 08:15:57;;;;;;;34.75;16.60;;;6.80;99.90;;;;;;4973226;28;20026;-84
2021/11/21 08:18:24;;;;;;;32.92;17.08;;;6.70;99.90;;;;;;4973333;28;20518;-84
2021/11/21 08:20:52;;;;;;;34.55;17.55;;;6.70;99.90;;;;;;4971921;28;20034;-84
2021/11/21 08:23:18;;;;;;;32.85;18.02;;;6.70;99.90;;;;;;4973439;28;20423;-84
2021/11/21 08:25:44;;;;;;;38.22;19.35;;;6.80;99.90;;;;;;4973288;28;20023;-84
2021/11/21 08:28:10;;;;;;;36.65;18.58;;;6.70;99.90;;;;;;4973595;28;20026;-84
2021/11/21 08:30:37;;;;;;;35.25;18.52;;;6.70;99.90;;;;;;4972932;28;20174;-84
2021/11/21 08:33:10;;;;;;;35.92;18.45;;;6.80;99.90;;;;;;4973028;28;20031;-86
2021/11/21 08:35:37;;;;;;;36.92;18.35;;;6.80;99.90;;;;;;4971552;28;20038;-86
2021/11/21 08:38:03;;;;;;;33.67;17.73;;;6.80;99.90;;;;;;4971656;28;20027;-87
2021/11/21 08:40:30;;;;;;;40.75;19.40;;;6.80;99.90;;;;;;4973091;28;20026;-86
2021/11/21 08:42:58;;;;;;;39.92;19.90;;;6.80;99.90;;;;;;4969620;28;20026;-86
2021/11/21 08:45:24;;;;;;;40.80;21.08;;;6.90;99.90;;;;;;4971707;28;20022;-87
2021/11/21 08:47:52;;;;;;;37.13;20.42;;;6.90;99.90;;;;;;4972856;28;20163;-86
2021/11/21 08:50:18;;;;;;;39.85;19.90;;;7.00;99.90;;;;;;4974454;28;20077;-86
2021/11/21 08:52:44;;;;;;;39.60;20.73;;;7.00;99.90;;;;;;4970661;28;20117;-86
2021/11/21 08:55:10;;;;;;;38.90;20.70;;;7.00;99.90;;;;;;4971788;28;20023;-86
2021/11/21 08:57:36;;;;;;;40.40;20.15;;;7.00;99.90;;;;;;4982323;28;20131;-87
2021/11/21 09:00:06;;;;;;;42.42;20.88;;;7.00;99.90;;;;;;4982196;28;20025;-87
2021/11/21 09:02:34;;;;;;;45.47;22.52;;;7.00;99.90;;;;;;4982820;28;20200;-86
2021/11/21 09:05:03;;;;;;;46.70;24.15;;;7.00;99.90;;;;;;4976399;28;20018;-86
2021/11/21 09:07:29;;;;;;;49.70;24.48;;;7.10;99.90;;;;;;4971692;28;20018;-87
2021/11/21 09:09:55;;;;;;;46.45;23.75;;;7.20;99.90;;;;;;4971474;28;20019;-86
2021/11/21 09:12:20;;;;;;;53.47;24.65;;;7.20;99.90;;;;;;4971411;28;20058;-86
2021/11/21 09:14:46;;;;;;;52.35;24.63;;;7.20;99.90;;;;;;4977516;28;20026;-87
2021/11/21 09:17:12;;;;;;;55.60;25.58;;;7.20;99.90;;;;;;4981706;28;20069;-87
2021/11/21 09:19:37;;;;;;;51.35;24.33;;;7.20;99.90;;;;;;4978221;28;20105;-87
2021/11/21 09:22:03;;;;;;;49.70;25.17;;;7.30;99.90;;;;;;4979565;28;20326;-87
2021/11/21 09:24:29;;;;;;;49.65;25.73;;;7.30;99.90;;;;;;4978246;28;20027;-87
2021/11/21 09:26:55;;;;;;;47.55;24.17;;;7.30;99.90;;;;;;4975299;28;20506;-87
2021/11/21 09:29:20;;;;;;;50.45;26.15;;;7.20;99.90;;;;;;4972907;28;20023;-87
2021/11/21 09:31:46;;;;;;;49.75;25.60;;;7.40;99.90;;;;;;4980718;28;20354;-87
2021/11/21 09:34:14;;;;;;;47.67;25.55;;;7.40;99.90;;;;;;4977859;28;20122;-88
2021/11/21 09:36:40;;;;;;;49.58;25.88;;;7.50;99.90;;;;;;4975022;28;20011;-87
2021/11/21 09:39:06;;;;;;;59.80;29.65;;;7.60;99.90;;;;;;4973552;28;20031;-85
2021/11/21 09:41:32;;;;;;;53.53;27.73;;;7.60;99.90;;;;;;4971184;28;20638;-86
2021/11/21 09:43:57;;;;;;;64.03;34.13;;;7.80;99.90;;;;;;4971016;28;20435;-85
2021/11/21 09:46:23;;;;;;;48.03;26.98;;;7.90;99.90;;;;;;4973965;28;20064;-87
2021/11/21 09:48:49;;;;;;;45.88;25.48;;;8.10;99.90;;;;;;4977058;28;20022;-87
2021/11/21 09:51:15;;;;;;;47.53;25.02;;;8.20;99.90;;;;;;4962132;28;20039;-87
2021/11/21 09:53:42;;;;;;;58.78;31.00;;;8.30;99.90;;;;;;4951547;28;20050;-87
2021/11/21 09:56:08;;;;;;;45.70;25.65;;;8.30;99.90;;;;;;4952260;28;20075;-88
2021/11/21 09:58:34;;;;;;;43.92;26.65;;;8.40;99.90;;;;;;4959984;28;20031;-88
2021/11/21 10:01:00;;;;;;;42.80;25.17;;;8.50;99.90;;;;;;4971745;28;20018;-88
2021/11/21 10:03:26;;;;;;;45.20;30.48;;;8.50;99.90;;;;;;4971344;28;20031;-87
2021/11/21 10:05:54;;;;;;;44.30;24.85;;;8.60;99.90;;;;;;4970096;28;20483;-88
2021/11/21 10:08:28;;;;;;;34.63;21.73;;;8.70;99.90;;;;;;4971509;28;20027;-88
2021/11/21 10:11:09;;;;;;;38.45;20.77;;;8.60;99.90;;;;;;4971512;28;20026;-87
2021/11/21 10:13:48;;;;;;;36.40;21.70;;;8.60;99.90;;;;;;4971371;28;20043;-87
2021/11/21 10:16:19;;;;;;;39.28;23.80;;;8.50;99.90;;;;;;4971434;28;20054;-87
2021/11/21 10:18:54;;;;;;;34.15;20.58;;;8.60;99.90;;;;;;4970753;28;20019;-87
2021/11/21 10:21:25;;;;;;;48.67;29.52;;;8.70;99.90;;;;;;4971391;28;20102;-88
2021/11/21 10:24:12;;;;;;;37.72;24.30;;;8.60;99.90;;;;;;4971240;28;20034;-87
2021/11/21 10:26:40;;;;;;;35.65;20.85;;;8.60;99.90;;;;;;4970022;28;20447;-87
2021/11/21 10:29:41;;;;;;;35.15;22.02;;;8.60;99.90;;;;;;4970576;28;20031;-87
2021/11/21 10:32:17;;;;;;;35.95;22.33;;;8.60;99.90;;;;;;4971559;28;20018;-86
2021/11/21 10:34:51;;;;;;;36.88;20.95;;;8.60;99.90;;;;;;4971541;28;20031;-87
2021/11/21 10:37:18;;;;;;;38.65;21.67;;;8.70;99.90;;;;;;4971029;28;20023;-87
2021/11/21 10:39:46;;;;;;;41.20;23.33;;;8.50;99.90;;;;;;4970834;28;20113;-87
2021/11/21 10:42:14;;;;;;;41.25;23.05;;;8.40;99.90;;;;;;4969653;28;20583;-88
2021/11/21 10:44:52;;;;;;;36.95;21.98;;;8.30;99.90;;;;;;4969925;28;20034;-89
2021/11/21 10:47:18;;;;;;;36.88;21.63;;;8.40;99.90;;;;;;4970045;28;20054;-88
2021/11/21 10:49:43;;;;;;;37.67;21.35;;;8.50;99.90;;;;;;4969874;28;20093;-89
2021/11/21 10:52:22;;;;;;;39.50;22.45;;;8.40;99.90;;;;;;4970931;28;20027;-88
2021/11/21 10:54:51;;;;;;;36.97;22.95;;;8.40;99.90;;;;;;4971449;28;20027;-88
2021/11/21 10:57:23;;;;;;;33.83;19.63;;;8.50;99.90;;;;;;4969787;28;20045;-78
2021/11/21 10:59:58;;;;;;;35.30;20.55;;;8.60;99.90;;;;;;4970934;28;20318;-77
2021/11/21 11:02:30;;;;;;;34.53;20.17;;;8.50;99.90;;;;;;4971194;28;20035;-81
2021/11/21 11:05:15;;;;;;;33.65;19.30;;;8.60;99.90;;;;;;4970451;28;20027;-80
2021/11/21 11:07:53;;;;;;;38.33;20.73;;;8.70;99.90;;;;;;4970972;28;20081;-82
2021/11/21 11:10:25;;;;;;;34.78;20.08;;;8.80;99.90;;;;;;4970968;28;20078;-81
2021/11/21 11:12:54;;;;;;;32.70;19.08;;;9.00;99.90;;;;;;4970755;28;20035;-81
2021/11/21 11:15:21;;;;;;;33.28;17.83;;;9.10;99.90;;;;;;4970754;28;20391;-81
2021/11/21 11:17:48;;;;;;;51.95;29.80;;;9.20;99.90;;;;;;4970558;28;20023;-81
2021/11/21 11:20:15;;;;;;;36.97;21.50;;;9.30;99.90;;;;;;4970598;28;20059;-81
2021/11/21 11:22:42;;;;;;;34.25;21.13;;;9.20;99.90;;;;;;4970624;28;20023;-81
2021/11/21 11:25:12;;;;;;;59.80;42.75;;;9.00;99.90;;;;;;4970527;28;20069;-85
2021/11/21 11:27:46;;;;;;;67.15;31.77;;;8.80;99.90;;;;;;4970640;28;20027;-81
2021/11/21 11:30:13;;;;;;;40.42;24.00;;;8.80;99.90;;;;;;4972845;28;20061;-84
2021/11/21 11:32:41;;;;;;;37.47;20.88;;;8.80;99.90;;;;;;4973054;28;20571;-81
2021/11/21 11:35:28;;;;;;;64.90;43.63;;;8.90;99.90;;;;;;4973929;28;20368;-81
2021/11/21 11:37:56;;;;;;;58.53;39.72;;;9.10;99.90;;;;;;4973563;28;20026;-81
2021/11/21 11:40:28;;;;;;;52.80;35.65;;;9.30;99.90;;;;;;4973372;28;20085;-84
2021/11/21 11:43:16;;;;;;;36.45;22.45;;;9.50;99.90;;;;;;4973311;28;20034;-80
2021/11/21 11:45:51;;;;;;;35.88;21.45;;;9.60;99.90;;;;;;4972514;28;20080;-81
2021/11/21 11:48:30;;;;;;;41.75;26.17;;;9.60;99.90;;;;;;4973393;28;20427;-81
2021/11/21 11:50:56;;;;;;;34.92;22.63;;;9.70;99.90;;;;;;4973439;28;20118;-83
2021/11/21 11:53:41;;;;;;;37.72;21.67;;;9.90;99.90;;;;;;4973154;28;20043;-81
2021/11/21 11:56:15;;;;;;;36.38;21.73;;;10.10;99.90;;;;;;4973091;28;20077;-81
2021/11/21 11:58:55;;;;;;;33.90;21.58;;;10.20;99.90;;;;;;4971864;28;20035;-81
2021/11/21 12:01:38;;;;;;;31.77;20.40;;;10.30;99.90;;;;;;4973368;28;20101;-81
2021/11/21 12:04:17;;;;;;;50.65;34.30;;;10.40;99.90;;;;;;4972713;28;20105;-82
2021/11/21 12:06:49;;;;;;;33.35;20.80;;;10.30;99.90;;;;;;4973497;28;20058;-81
2021/11/21 12:09:28;;;;;;;27.52;17.45;;;10.30;99.90;;;;;;4975356;28;20097;-84
2021/11/21 12:12:10;;;;;;;31.58;18.90;;;10.30;99.90;;;;;;4975719;28;20159;-81
2021/11/21 12:14:37;;;;;;;30.75;19.90;;;10.30;99.90;;;;;;4984212;28;20046;-81
2021/11/21 12:17:17;;;;;;;31.90;19.02;;;10.70;99.90;;;;;;4984013;28;20094;-81
2021/11/21 12:19:44;;;;;;;32.13;19.35;;;10.80;99.90;;;;;;4984116;28;20310;-81
2021/11/21 12:22:34;;;;;;;30.05;17.98;;;10.90;99.90;;;;;;4978888;28;20033;-80
2021/11/21 12:25:24;;;;;;;30.75;18.52;;;10.90;99.90;;;;;;4973898;28;20022;-79
2021/11/21 12:27:57;;;;;;;31.48;17.60;;;10.70;99.90;;;;;;4979211;28;20215;-79
2021/11/21 12:30:32;;;;;;;25.23;15.85;;;10.50;99.90;;;;;;4980748;28;20026;-80
2021/11/21 12:33:02;;;;;;;22.85;14.57;;;10.60;99.90;;;;;;4980951;28;20334;-88
2021/11/21 12:35:36;;;;;;;29.45;16.92;;;10.70;99.90;;;;;;4978971;28;20058;-79
2021/11/21 12:38:24;;;;;;;29.40;18.27;;;10.80;99.90;;;;;;4973918;28;20038;-79
2021/11/21 12:41:00;;;;;;;29.77;18.45;;;10.90;99.90;;;;;;4966055;28;20031;-80